createdAt,value
2017-05-01T00:00:46.947Z,1.7
2017-05-01T00:02:05.582Z,1.7
2017-05-01T00:03:24.221Z,1.6
2017-05-01T00:04:42.871Z,1.7
2017-05-01T00:06:01.510Z,1.7
2017-05-01T00:07:20.223Z,1.7
2017-05-01T00:08:38.911Z,1.6
2017-05-01T00:09:57.578Z,1.6
2017-05-01T00:11:16.252Z,1.6
2017-05-01T00:12:34.891Z,1.5
2017-05-01T00:13:53.560Z,1.5
2017-05-01T00:15:12.226Z,1.5
2017-05-01T00:16:30.864Z,1.5
2017-05-01T00:17:49.535Z,1.6
2017-05-01T00:19:08.176Z,1.6
2017-05-01T00:20:26.838Z,1.6
2017-05-01T00:21:45.473Z,1.6
2017-05-01T00:23:04.127Z,1.6
2017-05-01T00:24:22.763Z,1.5
2017-05-01T00:25:41.421Z,1.5
2017-05-01T00:27:00.125Z,1.5
2017-05-01T00:28:18.757Z,1.4
2017-05-01T00:29:37.389Z,1.3
2017-05-01T00:30:56.070Z,1.2
2017-05-01T00:32:14.766Z,1.2
2017-05-01T00:33:33.441Z,1.1
2017-05-01T00:34:52.079Z,1.2
2017-05-01T00:36:10.748Z,1.3
2017-05-01T00:37:29.379Z,1.3
2017-05-01T00:38:48.069Z,1.3
2017-05-01T00:40:06.731Z,1.3
2017-05-01T00:41:25.377Z,1.3
2017-05-01T00:42:44.064Z,1.3
2017-05-01T00:44:02.712Z,1.4
2017-05-01T00:45:21.346Z,1.4
2017-05-01T00:46:40.082Z,1.3
2017-05-01T00:47:58.718Z,1.3
2017-05-01T00:49:17.358Z,1.3
2017-05-01T00:50:35.997Z,1.3
2017-05-01T00:51:54.659Z,1.3
2017-05-01T00:53:13.324Z,1.2
2017-05-01T00:54:31.982Z,1.1
2017-05-01T00:55:50.616Z,1.1
2017-05-01T00:57:09.265Z,1.1
2017-05-01T00:58:27.945Z,1
2017-05-01T00:59:46.640Z,1
2017-05-01T01:01:05.283Z,1.1
2017-05-01T01:02:23.947Z,1.1
2017-05-01T01:03:42.584Z,1.1
2017-05-01T01:05:01.218Z,1.1
2017-05-01T01:06:19.911Z,1.2
2017-05-01T01:07:38.570Z,1.2
2017-05-01T01:08:57.253Z,1.1
2017-05-01T01:10:15.937Z,1.1
2017-05-01T01:11:34.596Z,1.1
2017-05-01T01:12:53.270Z,1.1
2017-05-01T01:14:11.921Z,1.1
2017-05-01T01:15:30.572Z,1.1
2017-05-01T01:16:49.229Z,1
2017-05-01T01:18:07.938Z,1
2017-05-01T01:19:26.623Z,1
2017-05-01T01:20:45.262Z,0.9
2017-05-01T01:22:03.908Z,0.9
2017-05-01T01:23:22.551Z,0.8
2017-05-01T01:24:41.191Z,0.8
2017-05-01T01:25:59.937Z,0.8
2017-05-01T01:27:18.570Z,0.8
2017-05-01T01:28:37.233Z,0.7
2017-05-01T01:29:55.864Z,0.7
2017-05-01T01:31:14.553Z,0.8
2017-05-01T01:32:33.213Z,0.7
2017-05-01T01:33:51.925Z,0.7
2017-05-01T01:35:10.599Z,0.7
2017-05-01T01:36:29.239Z,0.7
2017-05-01T01:37:47.880Z,0.7
2017-05-01T01:39:06.581Z,0.6
2017-05-01T01:40:25.218Z,0.6
2017-05-01T01:41:43.878Z,0.6
2017-05-01T01:43:02.516Z,0.6
2017-05-01T01:44:21.174Z,0.6
2017-05-01T01:45:39.843Z,0.6
2017-05-01T01:46:58.511Z,0.6
2017-05-01T01:48:17.195Z,0.7
2017-05-01T01:49:35.858Z,0.7
2017-05-01T01:50:54.499Z,0.9
2017-05-01T01:52:13.129Z,1
2017-05-01T01:53:31.762Z,0.9
2017-05-01T01:54:50.443Z,0.9
2017-05-01T01:56:09.079Z,0.9
2017-05-01T01:57:27.715Z,0.8
2017-05-01T01:58:46.377Z,0.8
2017-05-01T02:00:05.059Z,0.8
2017-05-01T02:01:23.700Z,0.8
2017-05-01T02:02:42.362Z,0.8
2017-05-01T02:04:01.051Z,0.7
2017-05-01T02:05:19.756Z,0.8
2017-05-01T02:06:38.430Z,0.9
2017-05-01T02:07:57.072Z,0.9
2017-05-01T02:09:15.706Z,1
2017-05-01T02:10:34.372Z,0.9
2017-05-01T02:11:53.006Z,0.8
2017-05-01T02:13:11.641Z,0.8
2017-05-01T02:14:30.281Z,0.7
2017-05-01T02:15:48.956Z,0.8
2017-05-01T02:17:07.605Z,0.9
2017-05-01T02:18:26.265Z,1
2017-05-01T02:19:44.907Z,1
2017-05-01T02:21:03.603Z,1
2017-05-01T02:22:22.245Z,0.9
2017-05-01T02:23:40.878Z,0.9
2017-05-01T02:24:59.569Z,0.8
2017-05-01T02:26:18.206Z,0.8
2017-05-01T02:27:36.847Z,0.7
2017-05-01T02:28:55.540Z,0.7
2017-05-01T02:30:14.179Z,0.7
2017-05-01T02:31:32.827Z,0.7
2017-05-01T02:32:51.516Z,0.6
2017-05-01T02:34:10.152Z,0.6
2017-05-01T02:35:28.794Z,0.6
2017-05-01T02:36:47.459Z,0.6
2017-05-01T02:38:06.117Z,0.6
2017-05-01T02:39:24.755Z,0.6
2017-05-01T02:40:43.396Z,0.6
2017-05-01T02:42:02.043Z,0.6
2017-05-01T02:43:20.690Z,0.5
2017-05-01T02:44:39.320Z,0.5
2017-05-01T02:45:57.954Z,0.5
2017-05-01T02:47:16.617Z,0.5
2017-05-01T02:48:35.248Z,0.5
2017-05-01T02:49:53.886Z,0.5
2017-05-01T02:51:12.528Z,0.6
2017-05-01T02:52:31.227Z,0.5
2017-05-01T02:53:49.865Z,0.5
2017-05-01T02:55:08.526Z,0.4
2017-05-01T02:56:27.205Z,0.4
2017-05-01T02:57:45.885Z,0.4
2017-05-01T02:59:04.573Z,0.5
2017-05-01T03:00:23.201Z,0.4
2017-05-01T03:01:41.857Z,0.4
2017-05-01T03:03:00.516Z,0.3
2017-05-01T03:04:19.198Z,0.3
2017-05-01T03:05:37.825Z,0.2
2017-05-01T03:06:56.461Z,0.2
2017-05-01T03:08:15.122Z,0.2
2017-05-01T03:09:33.756Z,0.2
2017-05-01T03:10:52.443Z,0.2
2017-05-01T03:12:11.102Z,0.2
2017-05-01T03:13:29.744Z,0.1
2017-05-01T03:14:48.424Z,0.1
2017-05-01T03:16:07.066Z,0.1
2017-05-01T03:17:25.706Z,0
2017-05-01T03:18:44.443Z,0
2017-05-01T03:20:03.071Z,0.1
2017-05-01T03:21:21.708Z,0.1
2017-05-01T03:22:40.343Z,0.1
2017-05-01T03:23:59.010Z,0.1
2017-05-01T03:25:17.646Z,0
2017-05-01T03:26:36.297Z,0
2017-05-01T03:27:54.944Z,0
2017-05-01T03:29:13.607Z,0
2017-05-01T03:30:32.326Z,0
2017-05-01T03:31:51.038Z,0
2017-05-01T03:33:09.742Z,0
2017-05-01T03:34:28.424Z,0
2017-05-01T03:35:47.093Z,0
2017-05-01T03:37:05.799Z,0
2017-05-01T03:38:24.466Z,0
2017-05-01T03:39:43.120Z,0
2017-05-01T03:41:01.778Z,0
2017-05-01T03:42:20.414Z,0
2017-05-01T03:43:39.056Z,0
2017-05-01T03:44:57.739Z,0
2017-05-01T03:46:16.450Z,0
2017-05-01T03:47:35.098Z,0
2017-05-01T03:48:53.750Z,-0.1
2017-05-01T03:50:12.429Z,-0.2
2017-05-01T03:51:31.093Z,-0.2
2017-05-01T03:52:49.782Z,-0.2
2017-05-01T03:54:08.449Z,-0.2
2017-05-01T03:55:27.114Z,-0.3
2017-05-01T03:56:45.790Z,-0.2
2017-05-01T03:58:04.444Z,-0.2
2017-05-01T03:59:23.125Z,-0.2
2017-05-01T04:00:41.805Z,-0.1
2017-05-01T04:02:00.479Z,0
2017-05-01T04:03:19.180Z,0.1
2017-05-01T04:04:37.875Z,0.1
2017-05-01T04:05:56.564Z,0.1
2017-05-01T04:07:15.200Z,0.2
2017-05-01T04:08:33.835Z,0.2
2017-05-01T04:09:52.493Z,0.2
2017-05-01T04:11:11.163Z,0.2
2017-05-01T04:12:29.814Z,0.2
2017-05-01T04:13:48.472Z,0.4
2017-05-01T04:15:07.112Z,0.4
2017-05-01T04:16:25.822Z,0.5
2017-05-01T04:17:44.473Z,0.6
2017-05-01T04:19:03.155Z,0.6
2017-05-01T04:20:21.815Z,0.6
2017-05-01T04:21:40.473Z,0.6
2017-05-01T04:22:59.192Z,0.7
2017-05-01T04:24:17.833Z,0.7
2017-05-01T04:25:36.513Z,0.8
2017-05-01T04:26:55.206Z,0.8
2017-05-01T04:28:13.882Z,0.9
2017-05-01T04:29:32.560Z,1
2017-05-01T04:30:51.200Z,1
2017-05-01T04:32:09.883Z,1
2017-05-01T04:33:28.550Z,1
2017-05-01T04:34:47.187Z,1.1
2017-05-01T04:36:05.840Z,1.2
2017-05-01T04:37:24.490Z,1.2
2017-05-01T04:38:43.131Z,1.2
2017-05-01T04:40:01.769Z,1.3
2017-05-01T04:41:20.444Z,1.3
2017-05-01T04:42:39.104Z,1.3
2017-05-01T04:43:57.739Z,1.2
2017-05-01T04:45:16.420Z,1.3
2017-05-01T04:46:35.077Z,1.3
2017-05-01T04:47:53.722Z,1.3
2017-05-01T04:49:12.364Z,1.3
2017-05-01T04:50:31.008Z,1.4
2017-05-01T04:51:49.655Z,1.4
2017-05-01T04:53:08.321Z,1.5
2017-05-01T04:54:27.016Z,1.7
2017-05-01T04:55:45.685Z,1.7
2017-05-01T04:57:04.318Z,1.9
2017-05-01T04:58:23.026Z,2
2017-05-01T04:59:41.658Z,2.1
2017-05-01T05:01:00.345Z,2.2
2017-05-01T05:02:19.015Z,2.3
2017-05-01T05:03:37.666Z,2.4
2017-05-01T05:04:56.315Z,2.5
2017-05-01T05:06:14.952Z,2.5
2017-05-01T05:07:33.588Z,2.6
2017-05-01T05:08:52.290Z,2.7
2017-05-01T05:10:10.961Z,2.7
2017-05-01T05:11:29.615Z,2.8
2017-05-01T05:12:48.247Z,2.8
2017-05-01T05:14:06.889Z,2.9
2017-05-01T05:15:25.543Z,2.9
2017-05-01T05:16:44.230Z,3
2017-05-01T05:18:02.861Z,3
2017-05-01T05:19:21.563Z,3
2017-05-01T05:20:40.198Z,3
2017-05-01T05:21:58.908Z,3.1
2017-05-01T05:23:17.602Z,3.1
2017-05-01T05:24:36.295Z,3.1
2017-05-01T05:25:54.957Z,3.2
2017-05-01T05:27:13.621Z,3.2
2017-05-01T05:28:32.269Z,3.2
2017-05-01T05:29:50.916Z,3.3
2017-05-01T05:31:09.555Z,3.4
2017-05-01T05:32:28.191Z,3.5
2017-05-01T05:33:46.832Z,3.6
2017-05-01T05:35:05.545Z,3.6
2017-05-01T05:36:24.174Z,3.7
2017-05-01T05:37:42.814Z,3.8
2017-05-01T05:39:01.456Z,4
2017-05-01T05:40:20.135Z,4.1
2017-05-01T05:41:38.827Z,4.1
2017-05-01T05:42:57.516Z,4.2
2017-05-01T05:44:16.153Z,4.3
2017-05-01T05:45:34.799Z,4.3
2017-05-01T05:46:53.447Z,4.4
2017-05-01T05:48:12.086Z,4.5
2017-05-01T05:49:30.720Z,4.6
2017-05-01T05:50:49.387Z,4.5
2017-05-01T05:52:08.028Z,4.5
2017-05-01T05:53:26.711Z,4.5
2017-05-01T05:54:45.378Z,4.6
2017-05-01T05:56:04.030Z,4.6
2017-05-01T05:57:22.668Z,4.6
2017-05-01T05:58:41.341Z,4.6
2017-05-01T05:59:59.981Z,4.6
2017-05-01T06:01:18.709Z,4.7
2017-05-01T06:02:37.352Z,4.7
2017-05-01T06:03:55.994Z,4.8
2017-05-01T06:05:14.682Z,4.8
2017-05-01T06:06:33.381Z,4.9
2017-05-01T06:07:52.016Z,5
2017-05-01T06:09:10.706Z,5
2017-05-01T06:10:29.336Z,5.1
2017-05-01T06:11:48.043Z,5.2
2017-05-01T06:13:06.674Z,5.2
2017-05-01T06:14:25.342Z,5.2
2017-05-01T06:15:44.021Z,5.3
2017-05-01T06:17:02.670Z,5.4
2017-05-01T06:18:21.350Z,5.5
2017-05-01T06:19:39.990Z,5.7
2017-05-01T06:20:58.691Z,5.9
2017-05-01T06:22:17.355Z,6.1
2017-05-01T06:23:35.988Z,6.2
2017-05-01T06:24:54.630Z,6.4
2017-05-01T06:26:13.291Z,6.6
2017-05-01T06:27:31.938Z,6.8
2017-05-01T06:28:50.568Z,6.9
2017-05-01T06:30:09.207Z,7.2
2017-05-01T06:31:27.865Z,7.5
2017-05-01T06:32:46.563Z,7.8
2017-05-01T06:34:05.279Z,8
2017-05-01T06:35:23.933Z,8.2
2017-05-01T06:36:42.582Z,8.3
2017-05-01T06:38:01.261Z,8.4
2017-05-01T06:39:19.941Z,8.6
2017-05-01T06:40:38.645Z,8.7
2017-05-01T06:41:57.287Z,8.8
2017-05-01T06:43:15.939Z,9
2017-05-01T06:44:34.590Z,9
2017-05-01T06:45:53.226Z,9.1
2017-05-01T06:47:11.901Z,9.1
2017-05-01T06:48:30.589Z,9.2
2017-05-01T06:49:49.223Z,9.2
2017-05-01T06:51:07.879Z,9.3
2017-05-01T06:52:26.562Z,9.3
2017-05-01T06:53:45.267Z,9.2
2017-05-01T06:55:03.906Z,9.2
2017-05-01T06:56:22.572Z,9.4
2017-05-01T06:57:41.217Z,9.5
2017-05-01T06:58:59.898Z,9.5
2017-05-01T07:00:18.601Z,9.6
2017-05-01T07:01:37.233Z,9.7
2017-05-01T07:02:55.868Z,9.8
2017-05-01T07:04:14.507Z,9.9
2017-05-01T07:05:33.159Z,10.2
2017-05-01T07:06:51.812Z,10.4
2017-05-01T07:08:10.461Z,10.5
2017-05-01T07:09:29.184Z,10.5
2017-05-01T07:10:47.832Z,10.6
2017-05-01T07:12:06.491Z,10.6
2017-05-01T07:13:25.182Z,10.8
2017-05-01T07:14:43.869Z,10.8
2017-05-01T07:16:02.529Z,10.8
2017-05-01T07:17:21.183Z,10.7
2017-05-01T07:18:39.852Z,10.7
2017-05-01T07:19:58.524Z,10.8
2017-05-01T07:21:17.227Z,10.7
2017-05-01T07:22:35.878Z,10.6
2017-05-01T07:23:54.531Z,10.7
2017-05-01T07:25:13.185Z,10.7
2017-05-01T07:26:31.883Z,10.7
2017-05-01T07:27:50.534Z,10.5
2017-05-01T07:29:09.198Z,10.4
2017-05-01T07:30:27.883Z,10.4
2017-05-01T07:31:46.578Z,10.4
2017-05-01T07:33:05.283Z,10.4
2017-05-01T07:34:23.943Z,10.3
2017-05-01T07:35:42.606Z,10.3
2017-05-01T07:37:01.297Z,10.2
2017-05-01T07:38:20.003Z,10.1
2017-05-01T07:39:38.664Z,10.1
2017-05-01T07:40:57.387Z,10.1
2017-05-01T07:42:16.046Z,10.2
2017-05-01T07:43:34.728Z,10.1
2017-05-01T07:44:53.379Z,10.1
2017-05-01T07:46:12.037Z,10.2
2017-05-01T07:47:30.694Z,10.3
2017-05-01T07:48:49.350Z,10.5
2017-05-01T07:50:08.051Z,10.7
2017-05-01T07:51:26.782Z,10.9
2017-05-01T07:52:45.471Z,11.1
2017-05-01T07:54:04.139Z,11.2
2017-05-01T07:55:22.806Z,11.5
2017-05-01T07:56:41.478Z,11.7
2017-05-01T07:58:00.127Z,12
2017-05-01T07:59:18.833Z,12.1
2017-05-01T08:00:37.481Z,12.2
2017-05-01T08:01:56.206Z,12.3
2017-05-01T08:03:14.936Z,12.3
2017-05-01T08:04:33.594Z,12.3
2017-05-01T08:05:52.242Z,12.4
2017-05-01T08:07:10.896Z,12.4
2017-05-01T08:08:29.615Z,12.4
2017-05-01T08:09:48.274Z,12.4
2017-05-01T08:11:06.932Z,12.2
2017-05-01T08:12:25.610Z,12
2017-05-01T08:13:44.273Z,12
2017-05-01T08:15:02.927Z,12.2
2017-05-01T08:16:21.595Z,12.2
2017-05-01T08:17:40.255Z,12.1
2017-05-01T08:18:58.907Z,12
2017-05-01T08:20:17.563Z,12
2017-05-01T08:21:36.223Z,12.1
2017-05-01T08:22:54.932Z,12.1
2017-05-01T08:24:13.585Z,12.2
2017-05-01T08:25:32.298Z,12.4
2017-05-01T08:26:50.989Z,12.6
2017-05-01T08:28:09.712Z,12.6
2017-05-01T08:29:28.417Z,12.5
2017-05-01T08:30:47.076Z,12.6
2017-05-01T08:32:05.734Z,12.7
2017-05-01T08:33:24.405Z,12.9
2017-05-01T08:34:43.114Z,13.1
2017-05-01T08:36:01.769Z,13.1
2017-05-01T08:37:20.434Z,13.2
2017-05-01T08:38:39.112Z,13.3
2017-05-01T08:39:57.765Z,13.5
2017-05-01T08:41:16.477Z,13.8
2017-05-01T08:42:35.156Z,13.9
2017-05-01T08:43:53.838Z,13.9
2017-05-01T08:45:12.547Z,13.9
2017-05-01T08:46:31.200Z,13.9
2017-05-01T08:47:49.857Z,13.7
2017-05-01T08:49:08.523Z,13.6
2017-05-01T08:50:27.183Z,13.6
2017-05-01T08:51:45.887Z,13.8
2017-05-01T08:53:04.604Z,14
2017-05-01T08:54:23.268Z,14.2
2017-05-01T08:55:41.935Z,14.3
2017-05-01T08:57:00.588Z,14.1
2017-05-01T08:58:19.243Z,14.2
2017-05-01T08:59:37.980Z,14.4
2017-05-01T09:00:56.632Z,14.8
2017-05-01T09:02:15.280Z,15.3
2017-05-01T09:03:33.937Z,15.7
2017-05-01T09:04:52.652Z,16
2017-05-01T09:06:11.352Z,16.2
2017-05-01T09:07:30.050Z,16.2
2017-05-01T09:08:48.707Z,16.2
2017-05-01T09:10:07.384Z,16.3
2017-05-01T09:11:26.067Z,16.3
2017-05-01T09:12:44.729Z,16.2
2017-05-01T09:14:03.431Z,16.3
2017-05-01T09:15:22.125Z,16.1
2017-05-01T09:16:40.834Z,16
2017-05-01T09:17:59.517Z,16.1
2017-05-01T09:19:18.175Z,16.2
2017-05-01T09:20:36.870Z,16.3
2017-05-01T09:21:55.548Z,16.4
2017-05-01T09:23:14.201Z,16.5
2017-05-01T09:24:32.908Z,16.5
2017-05-01T09:25:51.582Z,16.3
2017-05-01T09:27:10.232Z,16.1
2017-05-01T09:28:28.881Z,16
2017-05-01T09:29:47.560Z,16
2017-05-01T09:31:06.273Z,16
2017-05-01T09:32:24.926Z,16
2017-05-01T09:33:43.604Z,15.9
2017-05-01T09:35:02.258Z,16.1
2017-05-01T09:36:20.943Z,16.2
2017-05-01T09:37:39.613Z,16.2
2017-05-01T09:38:58.277Z,16.3
2017-05-01T09:40:16.937Z,16.5
2017-05-01T09:41:35.595Z,16.6
2017-05-01T09:42:54.312Z,16.6
2017-05-01T09:44:12.968Z,16.7
2017-05-01T09:45:31.636Z,16.8
2017-05-01T09:46:50.321Z,17
2017-05-01T09:48:09.018Z,17.1
2017-05-01T09:49:27.764Z,17.1
2017-05-01T09:50:46.435Z,17.2
2017-05-01T09:52:05.162Z,17.5
2017-05-01T09:53:23.824Z,17.6
2017-05-01T09:54:42.535Z,17.3
2017-05-01T09:56:01.189Z,17.4
2017-05-01T09:57:19.880Z,17.5
2017-05-01T09:58:38.531Z,17.4
2017-05-01T09:59:57.236Z,17.5
2017-05-01T10:01:15.898Z,17.5
2017-05-01T10:02:34.590Z,17.5
2017-05-01T10:03:53.272Z,17.5
2017-05-01T10:05:11.933Z,17.5
2017-05-01T10:06:30.585Z,17.6
2017-05-01T10:07:49.303Z,17.8
2017-05-01T10:09:07.970Z,18
2017-05-01T10:10:26.630Z,18.2
2017-05-01T10:11:45.283Z,18.4
2017-05-01T10:13:03.974Z,18.5
2017-05-01T10:14:22.699Z,18.3
2017-05-01T10:15:41.353Z,18.3
2017-05-01T10:17:00.007Z,18.4
2017-05-01T10:18:18.661Z,18.6
2017-05-01T10:19:37.317Z,18.9
2017-05-01T10:20:55.979Z,19
2017-05-01T10:22:14.684Z,18.8
2017-05-01T10:23:33.382Z,18.6
2017-05-01T10:24:52.032Z,18.5
2017-05-01T10:26:10.682Z,18.4
2017-05-01T10:27:29.365Z,18.6
2017-05-01T10:28:48.068Z,18.6
2017-05-01T10:30:06.731Z,18.7
2017-05-01T10:31:25.393Z,18.8
2017-05-01T10:32:44.074Z,18.8
2017-05-01T10:34:02.804Z,18.9
2017-05-01T10:35:21.521Z,19.1
2017-05-01T10:36:40.187Z,19.1
2017-05-01T10:37:58.872Z,18.9
2017-05-01T10:39:17.605Z,19.2
2017-05-01T10:40:36.280Z,19.3
2017-05-01T10:41:54.953Z,19.3
2017-05-01T10:43:13.601Z,19.2
2017-05-01T10:44:32.287Z,19.2
2017-05-01T10:45:50.968Z,19.2
2017-05-01T10:47:09.630Z,19.6
2017-05-01T10:48:28.326Z,20.1
2017-05-01T10:49:47.042Z,19.9
2017-05-01T10:51:05.719Z,20
2017-05-01T10:52:24.368Z,19.8
2017-05-01T10:53:43.015Z,19.6
2017-05-01T10:55:01.700Z,19.3
2017-05-01T10:56:20.357Z,19.1
2017-05-01T10:57:39.083Z,19.1
2017-05-01T10:58:57.799Z,19.3
2017-05-01T11:00:16.468Z,19.5
2017-05-01T11:01:35.187Z,19.9
2017-05-01T11:02:53.851Z,19.7
2017-05-01T11:04:12.531Z,19.3
2017-05-01T11:05:31.213Z,19
2017-05-01T11:06:49.867Z,18.5
2017-05-01T11:08:08.570Z,18.3
2017-05-01T11:09:27.228Z,18.2
2017-05-01T11:10:45.915Z,18.2
2017-05-01T11:12:04.575Z,18.3
2017-05-01T11:13:23.232Z,18.3
2017-05-01T11:14:41.884Z,18.4
2017-05-01T11:16:00.606Z,18.5
2017-05-01T11:17:19.303Z,18.5
2017-05-01T11:18:37.994Z,19
2017-05-01T11:19:56.689Z,19.6
2017-05-01T11:21:15.410Z,19.5
2017-05-01T11:22:34.084Z,19.1
2017-05-01T11:23:52.746Z,18.9
2017-05-01T11:25:11.403Z,18.7
2017-05-01T11:26:30.076Z,18.5
2017-05-01T11:27:48.729Z,18.3
2017-05-01T11:29:07.411Z,18.2
2017-05-01T11:30:26.068Z,18
2017-05-01T11:31:44.751Z,18
2017-05-01T11:33:03.407Z,18.1
2017-05-01T11:34:22.058Z,18.1
2017-05-01T11:35:40.716Z,18.1
2017-05-01T11:36:59.400Z,18
2017-05-01T11:38:18.061Z,17.8
2017-05-01T11:39:36.757Z,17.7
2017-05-01T11:40:55.421Z,17.7
2017-05-01T11:42:14.114Z,17.8
2017-05-01T11:43:32.810Z,17.8
2017-05-01T11:44:51.464Z,18
2017-05-01T11:46:10.120Z,18
2017-05-01T11:47:28.827Z,17.9
2017-05-01T11:48:47.479Z,17.9
2017-05-01T11:50:06.133Z,17.9
2017-05-01T11:51:24.819Z,17.9
2017-05-01T11:52:43.481Z,17.9
2017-05-01T11:54:02.138Z,17.8
2017-05-01T11:55:20.790Z,17.8
2017-05-01T11:56:39.453Z,17.6
2017-05-01T11:57:58.158Z,17.6
2017-05-01T11:59:16.868Z,17.3
2017-05-01T12:00:35.519Z,17.1
2017-05-01T12:01:54.178Z,16.7
2017-05-01T12:03:12.853Z,16.6
2017-05-01T12:04:31.516Z,16.6
2017-05-01T12:05:50.224Z,16.6
2017-05-01T12:07:08.905Z,16.5
2017-05-01T12:08:27.641Z,16.4
2017-05-01T12:09:46.325Z,16.4
2017-05-01T12:11:05.031Z,16.5
2017-05-01T12:12:23.715Z,16.4
2017-05-01T12:13:42.375Z,16.2
2017-05-01T12:15:01.024Z,16
2017-05-01T12:16:19.678Z,16.1
2017-05-01T12:17:38.326Z,16.2
2017-05-01T12:18:56.999Z,16.1
2017-05-01T12:20:15.655Z,16.1
2017-05-01T12:21:34.307Z,16.3
2017-05-01T12:22:52.966Z,16.3
2017-05-01T12:24:11.645Z,16.3
2017-05-01T12:25:30.335Z,16.3
2017-05-01T12:26:48.983Z,16.4
2017-05-01T12:28:07.655Z,16.6
2017-05-01T12:29:26.318Z,16.9
2017-05-01T12:30:44.975Z,17.2
2017-05-01T12:32:03.707Z,17.4
2017-05-01T12:33:22.360Z,17.7
2017-05-01T12:34:41.084Z,17.8
2017-05-01T12:35:59.771Z,18
2017-05-01T12:37:18.485Z,18.2
2017-05-01T12:38:37.152Z,18.6
2017-05-01T12:39:55.874Z,18.9
2017-05-01T12:41:14.544Z,19
2017-05-01T12:42:33.240Z,19.3
2017-05-01T12:43:51.916Z,19.6
2017-05-01T12:45:10.582Z,19.6
2017-05-01T12:46:29.235Z,19.6
2017-05-01T12:47:47.918Z,19.5
2017-05-01T12:49:06.574Z,19.3
2017-05-01T12:50:25.294Z,18.8
2017-05-01T12:51:43.984Z,18.4
2017-05-01T12:53:02.687Z,18.1
2017-05-01T12:54:21.338Z,17.7
2017-05-01T12:55:40.020Z,17.4
2017-05-01T12:56:58.706Z,17.3
2017-05-01T12:58:17.373Z,17.1
2017-05-01T12:59:36.027Z,17.2
2017-05-01T13:00:54.707Z,17.3
2017-05-01T13:02:13.378Z,17.4
2017-05-01T13:03:32.056Z,17.4
2017-05-01T13:04:50.735Z,17.4
2017-05-01T13:06:09.409Z,17.5
2017-05-01T13:07:28.059Z,17.2
2017-05-01T13:08:46.712Z,17
2017-05-01T13:10:05.407Z,16.9
2017-05-01T13:11:24.108Z,16.8
2017-05-01T13:12:42.810Z,16.6
2017-05-01T13:14:01.461Z,16.7
2017-05-01T13:15:20.108Z,16.8
2017-05-01T13:16:38.771Z,16.8
2017-05-01T13:17:57.426Z,17
2017-05-01T13:19:16.117Z,17.2
2017-05-01T13:20:34.772Z,17.4
2017-05-01T13:21:53.531Z,17.4
2017-05-01T13:23:12.183Z,17.4
2017-05-01T13:24:30.864Z,17.4
2017-05-01T13:25:49.521Z,17.5
2017-05-01T13:27:08.207Z,17.3
2017-05-01T13:28:26.894Z,17.1
2017-05-01T13:29:45.579Z,16.8
2017-05-01T13:31:04.235Z,16.6
2017-05-01T13:32:22.904Z,16.4
2017-05-01T13:33:41.557Z,16.3
2017-05-01T13:35:00.266Z,16.2
2017-05-01T13:36:18.925Z,16.2
2017-05-01T13:37:37.595Z,16.1
2017-05-01T13:38:56.270Z,15.9
2017-05-01T13:40:14.926Z,15.7
2017-05-01T13:41:33.597Z,15.7
2017-05-01T13:42:52.278Z,15.6
2017-05-01T13:44:10.929Z,15.5
2017-05-01T13:45:29.584Z,15.6
2017-05-01T13:46:48.249Z,15.6
2017-05-01T13:48:06.919Z,15.7
2017-05-01T13:49:25.581Z,15.7
2017-05-01T13:50:44.236Z,15.6
2017-05-01T13:52:02.898Z,15.3
2017-05-01T13:53:21.576Z,15.1
2017-05-01T13:54:40.231Z,14.9
2017-05-01T13:55:58.890Z,15
2017-05-01T13:57:17.553Z,15.1
2017-05-01T13:58:36.212Z,15.3
2017-05-01T13:59:54.869Z,15.4
2017-05-01T14:01:13.580Z,15.4
2017-05-01T14:02:32.264Z,15.2
2017-05-01T14:03:50.947Z,15.1
2017-05-01T14:05:09.668Z,14.9
2017-05-01T14:06:28.349Z,14.9
2017-05-01T14:07:47.059Z,14.8
2017-05-01T14:09:05.729Z,14.7
2017-05-01T14:10:24.390Z,14.7
2017-05-01T14:11:43.037Z,14.6
2017-05-01T14:13:01.758Z,14.5
2017-05-01T14:14:20.435Z,14.5
2017-05-01T14:15:39.096Z,14.4
2017-05-01T14:16:57.760Z,14.4
2017-05-01T14:18:16.410Z,14.4
2017-05-01T14:19:35.099Z,14.4
2017-05-01T14:20:53.788Z,14.3
2017-05-01T14:22:12.467Z,14.3
2017-05-01T14:23:31.130Z,14.3
2017-05-01T14:24:49.811Z,14.3
2017-05-01T14:26:08.519Z,14.4
2017-05-01T14:27:27.185Z,14.4
2017-05-01T14:28:45.867Z,14.4
2017-05-01T14:30:04.590Z,14.4
2017-05-01T14:31:23.271Z,14.3
2017-05-01T14:32:41.928Z,14.2
2017-05-01T14:34:00.581Z,14.1
2017-05-01T14:35:19.238Z,14
2017-05-01T14:36:37.885Z,13.9
2017-05-01T14:37:56.609Z,13.8
2017-05-01T14:39:15.264Z,13.8
2017-05-01T14:40:33.947Z,13.8
2017-05-01T14:41:52.606Z,13.8
2017-05-01T14:43:11.255Z,13.8
2017-05-01T14:44:29.907Z,13.8
2017-05-01T14:45:48.566Z,13.7
2017-05-01T14:47:07.232Z,13.7
2017-05-01T14:48:25.883Z,13.7
2017-05-01T14:49:44.535Z,13.6
2017-05-01T14:51:03.298Z,13.6
2017-05-01T14:52:22.002Z,13.6
2017-05-01T14:53:40.647Z,13.5
2017-05-01T14:54:59.312Z,13.5
2017-05-01T14:56:18.023Z,13.5
2017-05-01T14:57:36.688Z,13.5
2017-05-01T14:58:55.346Z,13.5
2017-05-01T15:00:13.998Z,13.4
2017-05-01T15:01:32.693Z,13.4
2017-05-01T15:02:51.399Z,13.3
2017-05-01T15:04:10.087Z,13.3
2017-05-01T15:05:28.796Z,13.3
2017-05-01T15:06:47.472Z,13.2
2017-05-01T15:08:06.129Z,13.2
2017-05-01T15:09:24.781Z,13.2
2017-05-01T15:10:43.441Z,13.2
2017-05-01T15:12:02.165Z,13.2
2017-05-01T15:13:20.820Z,13.1
2017-05-01T15:14:39.523Z,13.1
2017-05-01T15:15:58.194Z,13.1
2017-05-01T15:17:16.854Z,13
2017-05-01T15:18:35.501Z,13
2017-05-01T15:19:54.164Z,13
2017-05-01T15:21:12.838Z,13
2017-05-01T15:22:31.519Z,12.9
2017-05-01T15:23:50.223Z,12.9
2017-05-01T15:25:08.937Z,12.9
2017-05-01T15:26:27.597Z,12.9
2017-05-01T15:27:46.320Z,12.9
2017-05-01T15:29:04.975Z,12.9
2017-05-01T15:30:23.638Z,12.9
2017-05-01T15:31:42.334Z,12.9
2017-05-01T15:33:01.011Z,12.9
2017-05-01T15:34:19.663Z,12.9
2017-05-01T15:35:38.323Z,12.9
2017-05-01T15:36:56.973Z,12.9
2017-05-01T15:38:15.710Z,12.9
2017-05-01T15:39:34.365Z,12.9
2017-05-01T15:40:53.055Z,12.9
2017-05-01T15:42:11.758Z,12.8
2017-05-01T15:43:30.450Z,12.8
2017-05-01T15:44:49.157Z,12.8
2017-05-01T15:46:07.888Z,12.8
2017-05-01T15:47:26.540Z,12.7
2017-05-01T15:48:45.272Z,12.7
2017-05-01T15:50:03.929Z,12.7
2017-05-01T15:51:22.619Z,12.6
2017-05-01T15:52:41.303Z,12.6
2017-05-01T15:53:59.994Z,12.6
2017-05-01T15:55:18.651Z,12.5
2017-05-01T15:56:37.305Z,12.5
2017-05-01T15:57:56.008Z,12.5
2017-05-01T15:59:14.673Z,12.4
2017-05-01T16:00:33.328Z,12.4
2017-05-01T16:01:52.002Z,12.4
2017-05-01T16:03:10.663Z,12.4
2017-05-01T16:04:29.397Z,12.3
2017-05-01T16:05:48.050Z,12.3
2017-05-01T16:07:06.752Z,12.3
2017-05-01T16:08:25.450Z,12.3
2017-05-01T16:09:44.144Z,12.3
2017-05-01T16:11:02.854Z,12.2
2017-05-01T16:12:21.517Z,12.2
2017-05-01T16:13:40.205Z,12.2
2017-05-01T16:14:58.883Z,12.2
2017-05-01T16:16:17.565Z,12.1
2017-05-01T16:17:36.240Z,12.1
2017-05-01T16:18:54.898Z,12.1
2017-05-01T16:20:13.562Z,12.1
2017-05-01T16:21:32.210Z,12.1
2017-05-01T16:22:50.881Z,12.1
2017-05-01T16:24:09.545Z,12.1
2017-05-01T16:25:28.209Z,12.1
2017-05-01T16:26:46.867Z,12.1
2017-05-01T16:28:05.523Z,12.2
2017-05-01T16:29:24.236Z,12.2
2017-05-01T16:30:42.923Z,12.2
2017-05-01T16:32:01.586Z,12.2
2017-05-01T16:33:20.232Z,12.2
2017-05-01T16:34:38.882Z,12.2
2017-05-01T16:35:57.603Z,12.2
2017-05-01T16:37:16.260Z,12.2
2017-05-01T16:38:34.946Z,12.2
2017-05-01T16:39:53.650Z,12.2
2017-05-01T16:41:12.362Z,12.1
2017-05-01T16:42:31.087Z,12.1
2017-05-01T16:43:49.743Z,12.1
2017-05-01T16:45:08.399Z,12.1
2017-05-01T16:46:27.062Z,12
2017-05-01T16:47:45.756Z,12
2017-05-01T16:49:04.410Z,12
2017-05-01T16:50:23.073Z,12
2017-05-01T16:51:41.751Z,12
2017-05-01T16:53:00.455Z,12.1
2017-05-01T16:54:19.114Z,12.1
2017-05-01T16:55:37.784Z,12.1
2017-05-01T16:56:56.478Z,12.1
2017-05-01T16:58:15.134Z,12.2
2017-05-01T16:59:33.785Z,12.1
2017-05-01T17:00:52.491Z,12.1
2017-05-01T17:02:11.177Z,12.1
2017-05-01T17:03:29.865Z,12.1
2017-05-01T17:04:48.518Z,12.1
2017-05-01T17:06:07.177Z,12.1
2017-05-01T17:07:25.908Z,12
2017-05-01T17:08:44.560Z,12
2017-05-01T17:10:03.220Z,12
2017-05-01T17:11:21.884Z,12
2017-05-01T17:12:40.566Z,12
2017-05-01T17:13:59.253Z,12
2017-05-01T17:15:17.918Z,12
2017-05-01T17:16:36.574Z,12
2017-05-01T17:17:55.242Z,11.9
2017-05-01T17:19:13.951Z,11.9
2017-05-01T17:20:32.642Z,11.9
2017-05-01T17:21:51.296Z,11.9
2017-05-01T17:23:09.996Z,11.8
2017-05-01T17:24:28.653Z,11.8
2017-05-01T17:25:47.326Z,11.8
2017-05-01T17:27:05.981Z,11.8
2017-05-01T17:28:24.694Z,11.8
2017-05-01T17:29:43.353Z,11.7
2017-05-01T17:31:02.035Z,11.7
2017-05-01T17:32:20.689Z,11.7
2017-05-01T17:33:39.365Z,11.7
2017-05-01T17:34:58.058Z,11.7
2017-05-01T17:36:16.712Z,11.6
2017-05-01T17:37:35.408Z,11.6
2017-05-01T17:38:54.079Z,11.6
2017-05-01T17:40:12.787Z,11.6
2017-05-01T17:41:31.440Z,11.6
2017-05-01T17:42:50.096Z,11.6
2017-05-01T17:44:08.773Z,11.5
2017-05-01T17:45:27.447Z,11.5
2017-05-01T17:46:46.125Z,11.5
2017-05-01T17:48:04.773Z,11.5
2017-05-01T17:49:23.510Z,11.4